sensor_id;sensor_type;location;lat;lon;timestamp;pressure;altitude;pressure_sealevel;temperature;humidity
43281;BME280;62175;49.416;8.690;2022-12-07T00:02:01;100698.03;;;9.10;52.96
43281;BME280;62175;49.416;8.690;2022-12-07T00:04:28;100696.28;;;8.69;53.34
43281;BME280;62175;49.416;8.690;2022-12-07T00:06:55;100696.27;;;8.73;53.27
43281;BME280;62175;49.416;8.690;2022-12-07T00:09:22;100695.22;;;8.69;53.11
43281;BME280;62175;49.416;8.690;2022-12-07T00:11:50;100694.91;;;8.85;53.50
43281;BME280;62175;49.416;8.690;2022-12-07T00:14:20;100690.60;;;8.95;53.44
43281;BME280;62175;49.416;8.690;2022-12-07T00:16:49;100690.66;;;8.73;53.88
43281;BME280;62175;49.416;8.690;2022-12-07T00:19:16;100691.06;;;8.72;54.24
43281;BME280;62175;49.416;8.690;2022-12-07T00:21:43;100693.46;;;8.71;53.81
43281;BME280;62175;49.416;8.690;2022-12-07T00:24:11;100697.13;;;8.79;54.23
43281;BME280;62175;49.416;8.690;2022-12-07T00:26:41;100697.24;;;8.85;53.27
43281;BME280;62175;49.416;8.690;2022-12-07T00:29:13;100695.45;;;8.93;53.52
43281;BME280;62175;49.416;8.690;2022-12-07T00:31:42;100689.60;;;9.03;53.49
43281;BME280;62175;49.416;8.690;2022-12-07T00:34:13;100685.99;;;8.72;54.24
43281;BME280;62175;49.416;8.690;2022-12-07T00:36:41;100680.48;;;8.76;53.84
43281;BME280;62175;49.416;8.690;2022-12-07T00:39:09;100674.48;;;8.96;53.87
43281;BME280;62175;49.416;8.690;2022-12-07T00:41:36;100675.90;;;8.30;54.57
43281;BME280;62175;49.416;8.690;2022-12-07T00:44:04;100672.31;;;8.44;54.60
43281;BME280;62175;49.416;8.690;2022-12-07T00:46:32;100670.45;;;8.52;54.66
43281;BME280;62175;49.416;8.690;2022-12-07T00:48:59;100668.58;;;8.54;54.92
43281;BME280;62175;49.416;8.690;2022-12-07T00:51:27;100668.07;;;8.90;53.79
43281;BME280;62175;49.416;8.690;2022-12-07T00:53:55;100664.67;;;8.80;53.81
43281;BME280;62175;49.416;8.690;2022-12-07T00:56:25;100663.99;;;8.70;54.04
43281;BME280;62175;49.416;8.690;2022-12-07T00:58:53;100669.44;;;8.56;54.10
43281;BME280;62175;49.416;8.690;2022-12-07T01:01:22;100673.00;;;8.84;53.84
43281;BME280;62175;49.416;8.690;2022-12-07T01:03:50;100674.65;;;8.68;53.93
43281;BME280;62175;49.416;8.690;2022-12-07T01:06:19;100677.47;;;8.73;54.11
43281;BME280;62175;49.416;8.690;2022-12-07T01:08:46;100675.44;;;8.88;53.99
43281;BME280;62175;49.416;8.690;2022-12-07T01:11:15;100675.47;;;8.98;53.66
43281;BME280;62175;49.416;8.690;2022-12-07T01:13:43;100679.40;;;8.49;53.76
43281;BME280;62175;49.416;8.690;2022-12-07T01:16:12;100678.45;;;8.49;54.48
43281;BME280;62175;49.416;8.690;2022-12-07T01:18:41;100676.59;;;8.76;53.70
43281;BME280;62175;49.416;8.690;2022-12-07T01:21:12;100680.63;;;8.92;53.92
43281;BME280;62175;49.416;8.690;2022-12-07T01:23:40;100680.62;;;8.79;54.22
43281;BME280;62175;49.416;8.690;2022-12-07T01:26:11;100679.35;;;8.66;54.11
43281;BME280;62175;49.416;8.690;2022-12-07T01:28:38;100683.43;;;8.73;53.62
43281;BME280;62175;49.416;8.690;2022-12-07T01:31:08;100685.94;;;8.87;54.32
43281;BME280;62175;49.416;8.690;2022-12-07T01:33:37;100688.14;;;8.67;53.74
43281;BME280;62175;49.416;8.690;2022-12-07T01:36:07;100684.45;;;8.78;53.14
43281;BME280;62175;49.416;8.690;2022-12-07T01:38:34;100681.52;;;8.94;53.42
43281;BME280;62175;49.416;8.690;2022-12-07T01:41:02;100681.75;;;9.01;52.94
43281;BME280;62175;49.416;8.690;2022-12-07T01:43:31;100681.82;;;8.69;53.52
43281;BME280;62175;49.416;8.690;2022-12-07T01:45:59;100677.08;;;8.97;53.48
43281;BME280;62175;49.416;8.690;2022-12-07T01:48:30;100673.47;;;8.83;53.61
43281;BME280;62175;49.416;8.690;2022-12-07T01:51:04;100667.21;;;8.95;52.38
43281;BME280;62175;49.416;8.690;2022-12-07T01:53:36;100661.96;;;8.76;53.56
43281;BME280;62175;49.416;8.690;2022-12-07T01:56:07;100654.43;;;8.77;53.02
43281;BME280;62175;49.416;8.690;2022-12-07T01:58:37;100649.05;;;8.86;52.52
43281;BME280;62175;49.416;8.690;2022-12-07T02:01:04;100657.50;;;8.98;53.28
43281;BME280;62175;49.416;8.690;2022-12-07T02:03:34;100668.41;;;8.82;52.44
43281;BME280;62175;49.416;8.690;2022-12-07T02:06:03;100669.69;;;8.73;52.71
43281;BME280;62175;49.416;8.690;2022-12-07T02:08:31;100666.49;;;8.98;52.59
43281;BME280;62175;49.416;8.690;2022-12-07T02:10:58;100667.07;;;8.55;52.35
43281;BME280;62175;49.416;8.690;2022-12-07T02:13:27;100664.81;;;8.82;52.52
43281;BME280;62175;49.416;8.690;2022-12-07T02:16:08;100666.98;;;8.92;51.90
43281;BME280;62175;49.416;8.690;2022-12-07T23:04:56;100238.29;;;8.22;51.13
43281;BME280;62175;49.416;8.690;2022-12-07T23:06:57;100236.16;;;8.12;51.29
43281;BME280;62175;49.416;8.690;2022-12-07T23:09:50;100231.93;;;8.49;50.74
43281;BME280;62175;49.416;8.690;2022-12-07T23:12:18;100227.28;;;7.98;49.97
43281;BME280;62175;49.416;8.690;2022-12-07T23:14:45;100228.82;;;8.51;51.00
43281;BME280;62175;49.416;8.690;2022-12-07T23:17:12;100228.14;;;8.68;50.28
43281;BME280;62175;49.416;8.690;2022-12-07T23:19:40;100230.83;;;8.73;51.89
43281;BME280;62175;49.416;8.690;2022-12-07T23:22:07;100227.50;;;8.42;51.01
43281;BME280;62175;49.416;8.690;2022-12-07T23:24:34;100226.74;;;8.57;50.29
43281;BME280;62175;49.416;8.690;2022-12-07T23:27:03;100223.57;;;8.50;51.21
43281;BME280;62175;49.416;8.690;2022-12-07T23:29:32;100217.39;;;8.39;50.19
43281;BME280;62175;49.416;8.690;2022-12-07T23:32:00;100217.98;;;8.24;49.93
43281;BME280;62175;49.416;8.690;2022-12-07T23:34:28;100215.06;;;8.44;50.44
43281;BME280;62175;49.416;8.690;2022-12-07T23:36:55;100219.35;;;8.05;50.89
43281;BME280;62175;49.416;8.690;2022-12-07T23:39:23;100221.70;;;8.16;50.76
43281;BME280;62175;49.416;8.690;2022-12-07T23:41:50;100223.98;;;8.23;50.48
43281;BME280;62175;49.416;8.690;2022-12-07T23:44:17;100220.26;;;8.32;50.86
43281;BME280;62175;49.416;8.690;2022-12-07T23:46:44;100218.10;;;8.12;50.75
43281;BME280;62175;49.416;8.690;2022-12-07T23:49:11;100215.33;;;8.03;50.07
43281;BME280;62175;49.416;8.690;2022-12-07T23:51:39;100212.11;;;8.11;49.93
43281;BME280;62175;49.416;8.690;2022-12-07T23:54:06;100218.30;;;8.04;50.76
43281;BME280;62175;49.416;8.690;2022-12-07T23:56:38;100221.00;;;7.85;51.43
